createdAt,value
2022-09-07T00:01:29.372Z,0
2022-09-07T00:06:54.231Z,0
2022-09-07T00:12:16.705Z,0
2022-09-07T00:17:39.220Z,0
2022-09-07T00:23:01.567Z,0
2022-09-07T00:28:24.758Z,0
2022-09-07T00:33:47.080Z,0
2022-09-07T00:39:09.455Z,0
2022-09-07T00:44:31.905Z,0
2022-09-07T00:49:54.253Z,0
2022-09-07T00:55:24.098Z,0
2022-09-07T01:00:46.755Z,0
2022-09-07T01:06:09.384Z,0
2022-09-07T01:17:14.359Z,0
2022-09-07T01:33:27.300Z,0
2022-09-07T01:44:58.915Z,0
2022-09-07T01:50:21.057Z,0
2022-09-07T01:55:43.446Z,0
2022-09-07T02:06:24.040Z,0
2022-09-07T02:11:46.716Z,0
2022-09-07T02:17:11.319Z,0
2022-09-07T02:22:33.911Z,0
2022-09-07T02:27:59.160Z,0
2022-09-07T02:33:23.897Z,0
2022-09-07T02:38:46.719Z,0
2022-09-07T02:44:09.270Z,0
2022-09-07T02:49:31.972Z,0
2022-09-07T02:55:39.152Z,0
2022-09-07T03:01:02.152Z,0
2022-09-07T03:06:24.650Z,0
2022-09-07T03:11:49.878Z,0
2022-09-07T03:17:12.067Z,0
2022-09-07T03:22:34.493Z,0
2022-09-07T03:38:45.466Z,0
2022-09-07T03:44:07.864Z,0
2022-09-07T03:54:55.821Z,0
2022-09-07T04:00:21.329Z,0
2022-09-07T04:05:43.741Z,0
2022-09-07T04:11:05.993Z,0
2022-09-07T04:22:00.388Z,0
2022-09-07T04:27:22.922Z,0
2022-09-07T04:32:47.739Z,0
2022-09-07T04:38:10.534Z,0
2022-09-07T04:43:33.115Z,0
2022-09-07T04:48:55.399Z,5
2022-09-07T04:54:18.149Z,14.1
2022-09-07T04:59:40.863Z,21
2022-09-07T05:20:50.552Z,63
2022-09-07T05:26:13.329Z,78.8
2022-09-07T05:37:16.721Z,182.1
2022-09-07T05:42:39.339Z,182.3
2022-09-07T05:48:01.944Z,227.3
2022-09-07T05:53:24.509Z,234.4
2022-09-07T05:58:50.326Z,184.7
2022-09-07T06:04:13.169Z,221.4
2022-09-07T06:21:30.682Z,759.2
2022-09-07T06:26:53.964Z,790.9
2022-09-07T06:32:47.417Z,616.1
2022-09-07T06:38:10.213Z,461.5
2022-09-07T06:43:32.624Z,180.6
2022-09-07T06:48:56.646Z,136.4
2022-09-07T06:54:59.244Z,125.4
2022-09-07T07:00:22.125Z,119.8
2022-09-07T07:05:45.465Z,134.6
2022-09-07T07:16:33.748Z,404.8
2022-09-07T07:22:47.207Z,719.1
2022-09-07T07:29:10.058Z,813.4
2022-09-07T07:34:34.056Z,497.7
2022-09-07T07:46:06.483Z,504.6
2022-09-07T07:51:31.438Z,1034
2022-09-07T07:56:54.973Z,379.9
2022-09-07T08:02:17.555Z,1719.2
2022-09-07T08:07:42.195Z,2410.1
2022-09-07T08:13:05.614Z,2837.3
2022-09-07T08:18:30.633Z,2421.7
2022-09-07T08:23:54.253Z,2534.5
2022-09-07T08:29:17.142Z,1859.5
2022-09-07T08:34:40.346Z,2483.9
2022-09-07T08:40:03.785Z,2745
2022-09-07T08:56:14.779Z,3241.7
2022-09-07T09:01:39.535Z,3011.4
2022-09-07T09:07:03.246Z,3030.8
2022-09-07T09:12:26.072Z,3054.1
2022-09-07T09:23:09.343Z,1889.7
2022-09-07T09:28:33.323Z,1360.1
2022-09-07T09:33:55.391Z,1289.2
2022-09-07T09:39:17.603Z,876.9
2022-09-07T09:44:39.123Z,1012.6
2022-09-07T09:50:02.050Z,3233.9
2022-09-07T09:55:41.021Z,3036.6
2022-09-07T10:03:10.388Z,788.8
2022-09-07T10:09:14.781Z,3527.5
2022-09-07T10:14:39.514Z,3629.3
2022-09-07T10:20:02.361Z,904.6
2022-09-07T10:31:16.049Z,3488.7
2022-09-07T10:36:41.272Z,1173.5
2022-09-07T10:42:01.118Z,914.1
2022-09-07T10:47:28.200Z,3967.2
2022-09-07T10:58:18.166Z,957.2
2022-09-07T11:03:40.722Z,753.4
2022-09-07T11:09:21.185Z,2800.8
2022-09-07T11:14:45.177Z,3273.6
2022-09-07T11:20:08.353Z,3875.5
2022-09-07T11:25:33.101Z,3233.9
2022-09-07T11:31:01.009Z,1419.4
2022-09-07T11:36:23.536Z,2633.4
2022-09-07T11:41:46.727Z,3779.4
2022-09-07T11:47:08.590Z,3454.7
2022-09-07T11:52:32.802Z,2137.9
2022-09-07T11:57:56.231Z,1089.5
2022-09-07T12:03:23.247Z,4078.4
2022-09-07T12:14:11.762Z,1228
2022-09-07T12:19:33.938Z,3516.7
2022-09-07T12:24:58.678Z,4334
2022-09-07T12:30:34.475Z,3217
2022-09-07T12:35:57.289Z,1701.1
2022-09-07T12:41:31.728Z,886
2022-09-07T12:57:40.816Z,3149.9
2022-09-07T13:03:49.309Z,2013.3
2022-09-07T13:09:13.746Z,1920.4
2022-09-07T13:14:36.313Z,3172.7
2022-09-07T13:20:01.779Z,2617.5
2022-09-07T13:25:36.664Z,2709.6
2022-09-07T13:30:59.282Z,2250
2022-09-07T13:36:23.002Z,1903.4
2022-09-07T13:41:46.739Z,2444.9
2022-09-07T13:47:09.004Z,1752.9
2022-09-07T13:52:31.574Z,1568
2022-09-07T13:57:54.795Z,1508.6
2022-09-07T14:03:17.419Z,2588.1
2022-09-07T14:09:01.531Z,1194.9
2022-09-07T14:14:23.946Z,1324.4
2022-09-07T14:19:45.906Z,1062.9
2022-09-07T14:30:30.951Z,1057.9
2022-09-07T14:35:53.369Z,1211.4
2022-09-07T14:41:15.960Z,1321.5
2022-09-07T14:46:38.771Z,1694.3
2022-09-07T14:52:02.651Z,2185.4
2022-09-07T14:57:24.106Z,808.5
2022-09-07T15:02:46.889Z,557.6
2022-09-07T15:08:08.927Z,463.2
2022-09-07T15:13:34.246Z,477.6
2022-09-07T15:18:59.397Z,504.3
2022-09-07T15:24:21.844Z,570.2
2022-09-07T15:40:31.523Z,664.4
2022-09-07T15:45:54.427Z,680.4
2022-09-07T15:52:17.471Z,640.7
2022-09-07T15:58:12.384Z,513.7
2022-09-07T16:03:35.602Z,444.2
2022-09-07T16:08:58.462Z,440.8
2022-09-07T16:14:41.833Z,396.1
2022-09-07T16:20:04.497Z,400
2022-09-07T16:25:26.927Z,369.2
2022-09-07T16:31:01.300Z,248.1
2022-09-07T16:36:24.208Z,175.2
2022-09-07T16:41:46.923Z,142.2
2022-09-07T16:47:09.434Z,105.5
2022-09-07T16:58:40.382Z,82.6
2022-09-07T17:04:11.983Z,74.2
2022-09-07T17:09:37.320Z,68.9
2022-09-07T17:14:59.828Z,68.4
2022-09-07T17:25:36.390Z,56.2
2022-09-07T17:30:58.897Z,46.8
2022-09-07T17:36:21.367Z,47.3
2022-09-07T17:41:43.891Z,45.8
2022-09-07T17:47:09.401Z,37.7
2022-09-07T17:52:31.804Z,33.5
2022-09-07T17:57:54.440Z,29.3
2022-09-07T18:03:17.219Z,28
2022-09-07T18:08:39.798Z,19
2022-09-07T18:14:02.153Z,9
2022-09-07T18:24:47.629Z,0
2022-09-07T18:30:10.012Z,0
2022-09-07T18:35:32.503Z,0
2022-09-07T18:40:54.768Z,0
2022-09-07T18:46:17.920Z,0
2022-09-07T18:53:01.578Z,0
2022-09-07T18:58:27.465Z,0
2022-09-07T19:03:50.405Z,0
2022-09-07T19:09:12.780Z,0
2022-09-07T19:14:35.086Z,0
2022-09-07T19:19:58.964Z,0
2022-09-07T19:25:22.317Z,0
2022-09-07T19:30:45.304Z,0
2022-09-07T19:36:08.093Z,0
2022-09-07T19:41:46.164Z,0
2022-09-07T19:47:09.182Z,0
2022-09-07T19:52:31.975Z,0
2022-09-07T19:57:54.701Z,0
2022-09-07T20:03:17.437Z,0
2022-09-07T20:14:02.495Z,0
2022-09-07T20:19:25.348Z,0
2022-09-07T20:24:48.019Z,0
2022-09-07T20:30:20.164Z,0
2022-09-07T20:35:42.645Z,0
2022-09-07T20:46:33.596Z,0
2022-09-07T20:51:56.266Z,0
2022-09-07T20:57:32.651Z,0
2022-09-07T21:02:55.188Z,0
2022-09-07T21:13:46.360Z,0
2022-09-07T21:19:08.911Z,0
2022-09-07T21:24:31.391Z,0
2022-09-07T21:35:27.498Z,0
2022-09-07T21:40:49.971Z,0
2022-09-07T21:46:12.682Z,0
2022-09-07T22:02:21.247Z,0
2022-09-07T22:13:09.317Z,0
2022-09-07T22:18:31.958Z,0
2022-09-07T22:23:54.637Z,0
2022-09-07T22:29:16.977Z,0
2022-09-07T22:34:39.659Z,0
2022-09-07T22:40:02.931Z,0
2022-09-07T22:45:25.718Z,0
2022-09-07T22:50:48.962Z,0
2022-09-07T23:01:31.233Z,0
2022-09-07T23:06:53.796Z,0
2022-09-07T23:12:16.568Z,0
2022-09-07T23:17:39.081Z,0
2022-09-07T23:23:01.507Z,0
2022-09-07T23:39:11.750Z,0
2022-09-07T23:44:35.227Z,0
2022-09-07T23:49:57.962Z,0
2022-09-07T23:55:20.741Z,0
